EGKKEGGD

Guest
Details From EGKK - London Gatwick
To EGGD - Bristol Lulsgate
Flight Number -
Tags Generated
Created
Modified
Stats Distance 96 nm / 177 km
Max Altitude 0 ft / 0 m
Waypoints 2
Social Downloads 11
Likes 0
Share VATSIM

Download

Looking for another format? Having issues loading an existing format? Contact us
Advertisement - Login to hide

Notes

Generated

Route

EGKK EGGD

ID Type Via Altitude Latitude Longitude Leg Dist Tot Dist Heading (true) Name
O EGKK APT - 0 ft / 0 m 51.14691˚ -0.21257˚ - 0 nm - -
O EGGD APT - 0 ft / 0 m 51.38211˚ -2.73350˚ 95 nm 95 nm 279° / 277° -

Altitude Profile

Advertisement - Login to hide

EGKK

Details ICAO EGKK (LGW)
Name London Gatwick
Region United Kingdom
Timezone Europe/London (UTC+1.0)
Stats Elevation 196 ft / 60 m (AMSL)
Location 51.148753° -0.192472°
Runways 2
Magnetic Variation 0.368° W

METAR

EGKK 230920Z 01012KT 9999 FEW040 15/09 Q1022

Decode

TAF

TAF EGKK 230500Z 2306/2412 01012KT 9999 SCT040 PROB30 TEMPO 2306/2308 9000 BKN012 PROB30 TEMPO 2314/2317 7000 SHRA TEMPO 2321/2412 6000 SHRA PROB30 TEMPO 2321/2403 03015G25KT 4000 +SHRA PROB30 TEMPO 2410/2412 06015G25KT 4000 +SHRA

Decode

Departure Runways

ID Width Length Bearing (true) Bearing (mag) Surface Threshold Offset Overrun Length
08L 148 ft / 45 m 8,377 ft / 2,553 m 77.69° 78.06° Asphalt 1,053 ft / 321 m 0 ft / 0 m
08R 148 ft / 45 m 10,341 ft / 3,152 m 77.59° 77.96° Asphalt 1,289 ft / 393 m 0 ft / 0 m
26L 148 ft / 45 m 10,341 ft / 3,152 m 257.63° 258.00° Asphalt 879 ft / 268 m 600 ft / 183 m
26R 148 ft / 45 m 8,377 ft / 2,553 m 257.71° 258.08° Asphalt 1,365 ft / 416 m 0 ft / 0 m

EGGD

Details ICAO EGGD (BRS)
Name Bristol International
Region United Kingdom
Timezone Europe/London (UTC+1.0)
Stats Elevation 622 ft / 190 m (AMSL)
Location 51.382658° -2.718918°
Runways 1
Magnetic Variation 1.284° W

METAR

EGGD 230920Z AUTO 05010KT 010V080 9999 NCD 14/10 Q1024

Decode

TAF

TAF EGGD 230505Z 2306/2406 05010KT 9999 BKN007 PROB30 2306/2308 8000 BECMG 2307/2310 FEW030 PROB30 TEMPO 2321/2403 7000 SHRA TEMPO 2403/2406 5000 SHRA BKN008 BKN045CB

Decode

Destination Runways

ID Width Length Bearing (true) Bearing (mag) Surface Threshold Offset Overrun Length
09 148 ft / 45 m 6,655 ft / 2,029 m 86.42° 87.70° Asphalt 0 ft / 0 m 0 ft / 0 m
27 148 ft / 45 m 6,655 ft / 2,029 m 266.44° 267.72° Asphalt 499 ft / 152 m 0 ft / 0 m

Approach Navaids

Runway Type Ident Frequency Range Bearing (true) Bearing (mag) Slope Elevation
09 Localiser IBON 110.15 MHz 18 nm / 33 km 86.40° 87.68° - 622 ft / 190 m (AMSL)
09 Glidescope IBON 110.15 MHz 10 nm / 19 km 86.43° 87.72° 3.00° 622 ft / 190 m (AMSL)
09 DME IBON 110.15 MHz 18 nm / 33 km - - - 632 ft / 193 m (AMSL)
27 Localiser IBTS 110.15 MHz 18 nm / 33 km 266.47° 267.76° - 622 ft / 190 m (AMSL)
27 Glidescope IBTS 110.15 MHz 10 nm / 19 km 266.43° 267.72° 3.00° 632 ft / 193 m (AMSL)
27 DME IBTS 110.15 MHz 18 nm / 33 km - - - 631 ft / 192 m (AMSL)

Popular Alternatives